createdAt,value
2023-03-27T00:00:12.905Z,6.50
2023-03-27T00:02:39.965Z,6.54
2023-03-27T00:05:08.107Z,6.60
2023-03-27T00:07:36.092Z,6.63
2023-03-27T00:10:02.985Z,6.62
2023-03-27T00:12:29.968Z,6.46
2023-03-27T00:15:00.788Z,6.64
2023-03-27T00:17:33.693Z,6.64
2023-03-27T00:20:00.644Z,6.59
2023-03-27T00:22:30.059Z,6.56
2023-03-27T00:24:57.291Z,6.39
2023-03-27T00:27:26.703Z,6.43
2023-03-27T00:29:54.165Z,6.53
2023-03-27T00:32:21.122Z,6.50
2023-03-27T00:34:50.222Z,6.47
2023-03-27T00:37:17.060Z,6.38
2023-03-27T00:39:50.074Z,6.39
2023-03-27T00:42:22.911Z,6.35
2023-03-27T00:44:55.376Z,6.28
2023-03-27T00:47:40.707Z,6.31
2023-03-27T00:50:14.872Z,6.38
2023-03-27T00:52:44.776Z,6.38
2023-03-27T00:55:17.552Z,6.30
2023-03-27T00:57:47.679Z,6.24
2023-03-27T01:00:17.097Z,6.26
2023-03-27T01:02:48.737Z,6.11
2023-03-27T01:05:18.685Z,6.23
2023-03-27T01:08:00.247Z,6.11
2023-03-27T01:11:19.169Z,6.00
2023-03-27T01:14:38.068Z,6.21
2023-03-27T01:17:26.718Z,6.28
2023-03-27T01:20:15.301Z,6.21
2023-03-27T01:23:36.235Z,6.12
2023-03-27T01:26:38.169Z,6.27
2023-03-27T01:29:42.108Z,6.31
2023-03-27T01:32:49.709Z,6.09
2023-03-27T01:35:28.574Z,6.34
2023-03-27T01:38:15.828Z,6.47
2023-03-27T01:41:05.323Z,6.44
2023-03-27T01:43:55.183Z,6.32
2023-03-27T01:46:45.405Z,6.36
2023-03-27T01:49:23.424Z,6.56
2023-03-27T01:51:56.714Z,6.52
2023-03-27T01:54:37.462Z,6.69
2023-03-27T01:57:29.279Z,6.36
2023-03-27T02:00:19.370Z,6.38
2023-03-27T02:02:53.129Z,6.26
2023-03-27T02:05:47.089Z,6.21
2023-03-27T02:08:34.193Z,6.36
2023-03-27T02:11:01.216Z,6.30
2023-03-27T02:13:53.256Z,5.97
2023-03-27T02:16:33.972Z,6.01
2023-03-27T02:19:33.794Z,5.89
2023-03-27T02:22:01.148Z,5.94
2023-03-27T02:24:28.940Z,5.83
2023-03-27T02:27:12.926Z,5.76
2023-03-27T02:30:27.471Z,5.48
2023-03-27T02:33:14.847Z,5.71
2023-03-27T02:35:45.178Z,5.58
2023-03-27T02:38:30.618Z,5.33
2023-03-27T02:41:27.264Z,5.37
2023-03-27T02:44:20.514Z,5.16
2023-03-27T02:47:18.491Z,5.31
2023-03-27T02:49:52.499Z,5.05
2023-03-27T02:52:29.525Z,4.89
2023-03-27T02:55:06.423Z,5.11
2023-03-27T02:57:41.875Z,5.10
2023-03-27T03:00:26.090Z,4.94
2023-03-27T03:03:06.121Z,4.98
2023-03-27T03:05:34.100Z,5.01
2023-03-27T03:08:01.064Z,5.05
2023-03-27T03:10:31.300Z,4.89
2023-03-27T03:12:58.131Z,4.81
2023-03-27T03:15:25.066Z,4.73
2023-03-27T03:17:56.600Z,4.76
2023-03-27T03:20:29.785Z,4.83
2023-03-27T03:22:57.650Z,4.70
2023-03-27T03:25:27.261Z,4.76
2023-03-27T03:27:59.138Z,4.81
2023-03-27T03:30:31.183Z,4.66
2023-03-27T03:33:00.877Z,4.88
2023-03-27T03:35:28.289Z,4.99
2023-03-27T03:37:55.274Z,4.67
2023-03-27T03:40:22.227Z,4.73
2023-03-27T03:42:52.790Z,4.71
2023-03-27T03:45:22.808Z,4.81
2023-03-27T03:47:50.308Z,4.78
2023-03-27T03:50:21.753Z,4.63
2023-03-27T03:52:48.581Z,4.70
2023-03-27T03:55:21.321Z,4.81
2023-03-27T03:57:48.365Z,4.79
2023-03-27T04:00:18.674Z,4.54
2023-03-27T04:02:45.788Z,4.71
2023-03-27T04:05:13.032Z,4.35
2023-03-27T04:07:41.077Z,4.39
2023-03-27T04:10:14.269Z,4.47
2023-03-27T04:12:41.517Z,4.58
2023-03-27T04:15:09.370Z,4.64
2023-03-27T04:17:38.344Z,4.97
2023-03-27T04:20:06.395Z,4.77
2023-03-27T04:22:38.083Z,4.70
2023-03-27T04:25:09.635Z,4.41
2023-03-27T04:27:36.443Z,4.58
2023-03-27T04:30:03.520Z,4.58
2023-03-27T04:32:32.443Z,4.52
2023-03-27T04:34:59.317Z,4.31
2023-03-27T04:37:28.681Z,4.58
2023-03-27T04:39:55.724Z,4.47
2023-03-27T04:42:22.871Z,4.35
2023-03-27T04:44:53.093Z,4.22
2023-03-27T04:47:20.436Z,4.29
2023-03-27T04:49:50.752Z,4.32
2023-03-27T04:52:25.466Z,4.54
2023-03-27T04:54:58.861Z,4.50
2023-03-27T04:57:28.724Z,4.45
2023-03-27T04:59:55.550Z,4.55
2023-03-27T05:02:26.365Z,4.33
2023-03-27T05:04:58.507Z,4.21
2023-03-27T05:07:26.603Z,4.24
2023-03-27T05:09:57.301Z,4.33
2023-03-27T05:12:24.171Z,4.45
2023-03-27T05:14:56.032Z,4.40
2023-03-27T05:17:25.863Z,4.39
2023-03-27T05:19:52.805Z,4.50
2023-03-27T05:22:19.679Z,4.36
2023-03-27T05:24:46.790Z,4.29
2023-03-27T05:27:17.133Z,4.27
2023-03-27T05:29:47.644Z,4.15
2023-03-27T05:32:14.912Z,4.37
2023-03-27T05:34:42.338Z,4.46
2023-03-27T05:37:11.815Z,4.41
2023-03-27T05:39:38.641Z,4.59
2023-03-27T05:42:05.615Z,4.73
2023-03-27T05:44:32.494Z,4.74
2023-03-27T05:46:59.806Z,5.00
2023-03-27T05:49:29.315Z,4.89
2023-03-27T05:51:58.693Z,5.05
2023-03-27T05:54:28.593Z,5.29
2023-03-27T05:56:56.152Z,5.85
2023-03-27T05:59:25.551Z,6.44
2023-03-27T06:01:52.716Z,6.84
2023-03-27T06:04:22.037Z,7.21
2023-03-27T06:06:51.554Z,7.56
2023-03-27T06:09:18.422Z,7.35
2023-03-27T06:11:46.158Z,7.86
2023-03-27T06:14:13.036Z,8.64
2023-03-27T06:16:41.968Z,8.69
2023-03-27T06:19:11.065Z,9.41
2023-03-27T06:21:39.900Z,9.94
2023-03-27T06:24:07.890Z,10.18
2023-03-27T06:26:34.787Z,10.44
2023-03-27T06:29:08.620Z,10.58
2023-03-27T06:31:36.349Z,11.05
2023-03-27T06:34:05.815Z,11.23
2023-03-27T06:36:32.744Z,12.07
2023-03-27T06:39:02.784Z,12.32
2023-03-27T06:41:29.653Z,12.33
2023-03-27T06:43:56.680Z,12.82
2023-03-27T06:46:42.651Z,13.20
2023-03-27T06:49:14.152Z,13.41
2023-03-27T06:51:43.127Z,13.78
2023-03-27T06:54:10.125Z,14.41
2023-03-27T06:56:37.014Z,14.60
2023-03-27T06:59:03.928Z,14.88
2023-03-27T07:01:30.919Z,14.65
2023-03-27T07:04:00.000Z,14.79
2023-03-27T07:06:29.357Z,14.92
2023-03-27T07:08:58.559Z,15.60
2023-03-27T07:11:30.588Z,16.00
2023-03-27T07:13:58.854Z,16.37
2023-03-27T07:16:26.737Z,16.64
2023-03-27T07:18:58.363Z,16.80
2023-03-27T07:21:27.238Z,17.70
2023-03-27T07:23:56.506Z,17.80
2023-03-27T07:26:24.085Z,17.96
2023-03-27T07:28:51.756Z,18.51
2023-03-27T07:33:48.793Z,17.99
2023-03-27T07:36:17.837Z,17.84
2023-03-27T07:38:47.717Z,18.55
2023-03-27T07:41:14.669Z,19.12
2023-03-27T07:43:41.633Z,19.74
2023-03-27T07:46:10.670Z,20.03
2023-03-27T07:48:38.512Z,18.04
2023-03-27T07:51:13.802Z,15.68
2023-03-27T07:53:41.609Z,13.56
2023-03-27T07:56:10.379Z,12.14
2023-03-27T07:58:42.622Z,11.00
2023-03-27T08:01:12.021Z,10.19
2023-03-27T08:03:39.092Z,9.87
2023-03-27T08:06:09.066Z,10.20
2023-03-27T08:08:36.040Z,11.10
2023-03-27T08:11:04.305Z,11.85
2023-03-27T08:13:31.251Z,13.95
2023-03-27T08:16:07.825Z,16.63
2023-03-27T08:18:37.930Z,18.50
2023-03-27T08:21:10.485Z,20.38
2023-03-27T08:23:41.164Z,21.04
2023-03-27T08:26:11.689Z,22.34
2023-03-27T08:28:38.603Z,23.77
2023-03-27T08:31:13.756Z,23.92
2023-03-27T08:33:43.342Z,23.59
2023-03-27T08:36:12.077Z,21.90
2023-03-27T08:38:39.531Z,20.16
2023-03-27T08:41:07.685Z,19.32
2023-03-27T08:43:44.447Z,18.94
2023-03-27T08:46:40.470Z,18.54
2023-03-27T08:49:20.905Z,17.65
2023-03-27T08:52:03.871Z,16.76
2023-03-27T08:54:35.382Z,15.89
2023-03-27T08:57:04.918Z,16.11
2023-03-27T08:59:34.310Z,15.37
2023-03-27T09:02:19.555Z,14.65
2023-03-27T09:05:06.445Z,14.78
2023-03-27T09:07:59.138Z,14.31
2023-03-27T09:10:45.893Z,13.95
2023-03-27T09:13:27.798Z,13.10
2023-03-27T09:16:08.966Z,12.07
2023-03-27T09:19:06.306Z,12.27
2023-03-27T09:21:44.515Z,12.91
2023-03-27T09:24:33.873Z,12.55
2023-03-27T09:27:26.631Z,11.31
2023-03-27T09:30:22.691Z,12.85
2023-03-27T09:33:03.423Z,14.56
2023-03-27T09:35:38.809Z,14.05
2023-03-27T09:38:28.499Z,14.62
2023-03-27T09:40:59.460Z,16.56
2023-03-27T09:43:39.633Z,18.57
2023-03-27T09:46:08.467Z,18.16
2023-03-27T09:48:57.700Z,17.15
2023-03-27T09:51:42.501Z,16.10
2023-03-27T09:54:14.202Z,16.47
2023-03-27T09:56:54.539Z,19.66
2023-03-27T09:59:38.341Z,21.74
2023-03-27T10:02:27.251Z,19.44
2023-03-27T10:05:13.632Z,18.01
2023-03-27T10:07:43.922Z,16.51
2023-03-27T10:10:20.225Z,16.45
2023-03-27T10:12:58.555Z,15.27
2023-03-27T10:15:38.575Z,16.71
2023-03-27T10:18:27.669Z,19.12
2023-03-27T10:21:01.441Z,18.61
2023-03-27T10:23:52.491Z,17.82
2023-03-27T10:26:27.813Z,21.62
2023-03-27T10:29:05.182Z,24.20
2023-03-27T10:31:37.620Z,24.98
2023-03-27T10:34:11.845Z,25.94
2023-03-27T10:36:40.444Z,25.14
2023-03-27T10:39:12.948Z,26.30
2023-03-27T10:41:40.654Z,26.34
2023-03-27T10:44:18.021Z,26.03
2023-03-27T10:46:45.724Z,26.43
2023-03-27T10:49:44.178Z,25.28
2023-03-27T10:52:48.484Z,25.52
2023-03-27T10:55:51.633Z,27.06
2023-03-27T10:58:49.063Z,28.55
2023-03-27T11:01:26.405Z,26.80
2023-03-27T11:04:11.666Z,26.18
2023-03-27T11:06:41.994Z,27.60
2023-03-27T11:09:18.594Z,28.58
2023-03-27T11:12:09.394Z,28.02
2023-03-27T11:15:09.144Z,26.89
2023-03-27T11:18:00.728Z,23.55
2023-03-27T11:20:43.632Z,20.09
2023-03-27T11:23:39.288Z,18.43
2023-03-27T11:26:11.426Z,16.89
2023-03-27T11:28:52.968Z,15.29
2023-03-27T11:31:57.274Z,13.13
2023-03-27T11:34:45.671Z,11.42
2023-03-27T11:37:26.722Z,10.04
2023-03-27T11:40:05.688Z,9.12
2023-03-27T11:42:37.111Z,8.99
2023-03-27T11:45:07.318Z,8.90
2023-03-27T11:48:24.843Z,9.10
2023-03-27T11:51:03.181Z,9.08
2023-03-27T11:54:01.503Z,11.43
2023-03-27T11:56:55.337Z,17.49
2023-03-27T11:59:58.585Z,21.34
2023-03-27T12:02:45.488Z,22.77
2023-03-27T12:05:38.203Z,23.05
2023-03-27T12:09:16.898Z,21.07
2023-03-27T12:12:06.392Z,18.09
2023-03-27T12:14:51.297Z,15.83
2023-03-27T12:17:37.174Z,14.17
2023-03-27T12:20:52.782Z,13.09
2023-03-27T12:23:45.828Z,12.06
2023-03-27T12:26:39.953Z,11.66
2023-03-27T12:29:42.043Z,11.46
2023-03-27T12:33:04.681Z,12.12
2023-03-27T12:35:40.274Z,12.20
2023-03-27T12:38:28.633Z,10.91
2023-03-27T12:41:29.442Z,10.18
2023-03-27T12:44:03.614Z,10.30
2023-03-27T12:46:37.759Z,11.84
2023-03-27T12:49:13.624Z,15.81
2023-03-27T12:52:04.900Z,19.69
2023-03-27T12:54:39.041Z,21.14
2023-03-27T12:57:22.311Z,22.41
2023-03-27T12:59:52.068Z,23.73
2023-03-27T13:02:57.674Z,24.66
2023-03-27T13:05:38.703Z,24.69
2023-03-27T13:08:35.474Z,24.78
2023-03-27T13:11:19.451Z,25.11
2023-03-27T13:14:01.140Z,24.66
2023-03-27T13:17:25.039Z,26.01
2023-03-27T13:20:23.472Z,24.53
2023-03-27T13:23:06.129Z,25.21
2023-03-27T13:26:14.112Z,24.07
2023-03-27T13:28:48.559Z,22.87
2023-03-27T13:31:44.601Z,24.69
2023-03-27T13:34:26.134Z,22.61
2023-03-27T13:37:06.523Z,21.63
2023-03-27T13:39:55.685Z,22.45
2023-03-27T13:42:30.046Z,21.95
2023-03-27T13:45:03.946Z,20.87
2023-03-27T13:47:33.664Z,21.09
2023-03-27T13:50:28.234Z,21.75
2023-03-27T13:53:16.455Z,21.01
2023-03-27T13:56:33.396Z,21.36
2023-03-27T13:59:40.094Z,19.95
2023-03-27T14:03:10.797Z,18.36
2023-03-27T14:05:56.458Z,16.66
2023-03-27T14:09:35.587Z,15.62
2023-03-27T14:12:16.742Z,13.10
2023-03-27T14:15:23.681Z,11.83
2023-03-27T14:18:25.659Z,11.46
2023-03-27T14:21:00.575Z,11.45
2023-03-27T14:23:32.794Z,11.96
2023-03-27T14:26:24.551Z,14.29
2023-03-27T14:28:58.843Z,16.77
2023-03-27T14:31:28.773Z,18.67
2023-03-27T14:34:12.227Z,19.99
2023-03-27T14:36:45.936Z,20.91
2023-03-27T14:39:21.962Z,20.98
2023-03-27T14:41:57.321Z,21.48
2023-03-27T14:44:26.649Z,21.44
2023-03-27T14:47:09.293Z,19.56
2023-03-27T14:49:45.354Z,18.93
2023-03-27T14:52:21.909Z,19.40
2023-03-27T14:54:55.197Z,19.74
2023-03-27T14:57:27.300Z,19.76
2023-03-27T14:59:55.431Z,18.12
2023-03-27T15:02:31.722Z,17.91
2023-03-27T15:05:09.744Z,16.93
2023-03-27T15:07:42.817Z,16.15
2023-03-27T15:10:15.091Z,15.94
2023-03-27T15:12:47.136Z,15.22
2023-03-27T15:15:42.650Z,14.74
2023-03-27T15:18:31.388Z,15.71
2023-03-27T15:21:11.483Z,16.43
2023-03-27T15:24:02.811Z,16.10
2023-03-27T15:26:35.060Z,15.54
2023-03-27T15:29:39.238Z,15.12
2023-03-27T15:32:14.818Z,14.76
2023-03-27T15:34:58.057Z,14.59
2023-03-27T15:37:28.581Z,14.19
2023-03-27T15:40:09.013Z,13.57
2023-03-27T15:43:06.675Z,13.62
2023-03-27T15:46:14.740Z,13.76
2023-03-27T15:48:50.753Z,13.46
2023-03-27T15:51:33.161Z,13.14
2023-03-27T15:54:32.161Z,12.56
2023-03-27T15:57:10.473Z,12.56
2023-03-27T15:59:52.017Z,12.42
2023-03-27T16:02:24.930Z,12.02
2023-03-27T16:04:56.140Z,11.51
2023-03-27T16:07:42.535Z,11.15
2023-03-27T16:10:15.361Z,11.09
2023-03-27T16:12:58.383Z,10.51
2023-03-27T16:15:36.299Z,10.40
2023-03-27T16:18:28.248Z,10.30
2023-03-27T16:21:08.387Z,10.02
2023-03-27T16:23:35.841Z,9.89
2023-03-27T16:26:06.164Z,9.98
2023-03-27T16:28:33.854Z,9.88
2023-03-27T16:31:12.156Z,9.82
2023-03-27T16:33:42.987Z,9.70
2023-03-27T16:36:16.048Z,9.73
2023-03-27T16:38:45.946Z,9.69
2023-03-27T16:41:18.901Z,9.63
2023-03-27T16:43:48.918Z,9.65
2023-03-27T16:46:22.967Z,9.08
2023-03-27T16:48:51.977Z,9.25
2023-03-27T16:51:24.689Z,9.18
2023-03-27T16:53:52.910Z,9.32
2023-03-27T16:56:21.210Z,9.52
2023-03-27T16:58:48.686Z,9.44
2023-03-27T17:01:17.604Z,9.10
2023-03-27T17:03:47.072Z,9.43
2023-03-27T17:06:18.827Z,9.44
2023-03-27T17:08:45.816Z,9.25
2023-03-27T17:11:13.909Z,9.05
2023-03-27T17:13:43.423Z,8.80
2023-03-27T17:16:11.115Z,8.68
2023-03-27T17:18:42.697Z,8.54
2023-03-27T17:21:09.610Z,8.64
2023-03-27T17:23:36.682Z,8.45
2023-03-27T17:26:05.418Z,8.48
2023-03-27T17:28:32.409Z,8.58
2023-03-27T17:31:04.589Z,8.60
2023-03-27T17:33:33.196Z,8.49
2023-03-27T17:36:00.400Z,8.45
2023-03-27T17:38:29.830Z,8.27
2023-03-27T17:41:01.412Z,8.30
2023-03-27T17:43:28.230Z,8.55
2023-03-27T17:45:57.385Z,8.22
2023-03-27T17:48:28.957Z,8.36
2023-03-27T17:51:08.893Z,7.91
2023-03-27T17:53:38.653Z,7.88
2023-03-27T17:56:07.371Z,7.57
2023-03-27T17:58:34.586Z,7.68
2023-03-27T18:01:12.453Z,7.72
2023-03-27T18:03:43.899Z,7.74
2023-03-27T18:06:14.465Z,7.83
2023-03-27T18:08:41.397Z,7.99
2023-03-27T18:11:11.136Z,8.13
2023-03-27T18:13:41.930Z,8.02
2023-03-27T18:16:10.736Z,7.77
2023-03-27T18:18:39.041Z,7.36
2023-03-27T18:21:06.798Z,7.37
2023-03-27T18:23:35.110Z,7.51
2023-03-27T18:26:07.069Z,7.64
2023-03-27T18:28:35.777Z,7.71
2023-03-27T18:31:08.484Z,7.80
2023-03-27T18:33:38.315Z,7.92
2023-03-27T18:36:12.044Z,7.78
2023-03-27T18:38:41.054Z,7.75
2023-03-27T18:41:09.356Z,7.80
2023-03-27T18:43:36.530Z,8.02
2023-03-27T18:46:06.782Z,7.98
2023-03-27T18:48:36.521Z,7.92
2023-03-27T18:51:07.359Z,8.18
2023-03-27T18:53:36.717Z,8.07
2023-03-27T18:56:03.962Z,7.80
2023-03-27T18:58:31.279Z,7.87
2023-03-27T19:01:00.774Z,7.63
2023-03-27T19:03:34.806Z,7.23
2023-03-27T19:06:06.283Z,7.29
2023-03-27T19:08:34.332Z,7.35
2023-03-27T19:11:06.521Z,7.12
2023-03-27T19:13:35.766Z,7.26
2023-03-27T19:16:02.659Z,6.68
2023-03-27T19:18:47.189Z,6.61
2023-03-27T19:21:17.727Z,6.30
2023-03-27T19:23:50.268Z,6.17
2023-03-27T19:26:19.267Z,6.34
2023-03-27T19:28:48.796Z,6.38
2023-03-27T19:31:16.945Z,6.28
2023-03-27T19:33:46.402Z,6.12
2023-03-27T19:36:13.527Z,6.29
2023-03-27T19:38:44.334Z,6.28
2023-03-27T19:41:11.866Z,6.23
2023-03-27T19:43:43.770Z,6.09
2023-03-27T19:46:16.430Z,6.38
2023-03-27T19:48:49.915Z,6.05
2023-03-27T19:51:19.826Z,5.94
2023-03-27T19:53:49.144Z,6.00
2023-03-27T19:56:16.152Z,6.08
2023-03-27T19:58:43.034Z,6.02
2023-03-27T20:01:10.163Z,6.10
2023-03-27T20:03:38.358Z,6.10
2023-03-27T20:06:13.216Z,5.80
2023-03-27T20:08:42.108Z,5.68
2023-03-27T20:11:09.261Z,5.50
2023-03-27T20:13:48.923Z,5.65
2023-03-27T20:16:24.160Z,5.72
2023-03-27T20:18:55.370Z,5.77
2023-03-27T20:21:27.324Z,5.61
2023-03-27T20:23:56.536Z,5.47
2023-03-27T20:26:24.223Z,5.47
2023-03-27T20:28:52.126Z,5.52
2023-03-27T20:31:24.856Z,5.66
2023-03-27T20:33:53.218Z,5.66
2023-03-27T20:36:24.792Z,5.88
2023-03-27T20:38:52.770Z,5.87
2023-03-27T20:41:21.980Z,5.73
2023-03-27T20:43:50.921Z,5.34
2023-03-27T20:46:17.996Z,5.50
2023-03-27T20:48:54.097Z,5.75
2023-03-27T20:51:24.438Z,5.73
2023-03-27T20:53:58.371Z,5.88
2023-03-27T20:56:27.927Z,5.46
2023-03-27T20:58:57.228Z,5.67
2023-03-27T21:01:27.253Z,6.13
2023-03-27T21:03:58.331Z,6.25
2023-03-27T21:06:25.838Z,6.39
2023-03-27T21:08:52.764Z,6.38
2023-03-27T21:11:22.593Z,6.32
2023-03-27T21:13:51.582Z,6.14
2023-03-27T21:16:20.907Z,6.25
2023-03-27T21:18:47.803Z,6.16
2023-03-27T21:21:14.665Z,6.25
2023-03-27T21:23:43.517Z,6.35
2023-03-27T21:26:12.914Z,6.43
2023-03-27T21:28:39.762Z,6.03
2023-03-27T21:31:10.766Z,6.25
2023-03-27T21:33:40.123Z,6.21
2023-03-27T21:36:07.858Z,6.44
2023-03-27T21:38:34.781Z,6.20
2023-03-27T21:41:05.730Z,6.27
2023-03-27T21:43:37.159Z,6.58
2023-03-27T21:46:04.427Z,6.72
2023-03-27T21:48:33.770Z,6.64
2023-03-27T21:51:06.091Z,6.62
2023-03-27T21:53:37.710Z,6.37
2023-03-27T21:56:05.058Z,6.26
2023-03-27T21:58:34.215Z,6.19
2023-03-27T22:01:03.634Z,6.38
2023-03-27T22:03:35.247Z,6.40
2023-03-27T22:06:13.050Z,6.38
2023-03-27T22:08:42.372Z,6.34
2023-03-27T22:11:11.484Z,6.39
2023-03-27T22:13:39.316Z,6.31
2023-03-27T22:16:13.711Z,6.39
2023-03-27T22:18:41.796Z,6.58
2023-03-27T22:21:24.244Z,6.39
2023-03-27T22:23:52.580Z,6.34
2023-03-27T22:26:22.948Z,6.50
2023-03-27T22:28:52.491Z,6.42
2023-03-27T22:31:23.419Z,6.32
2023-03-27T22:33:51.087Z,6.30
2023-03-27T22:36:19.163Z,6.22
2023-03-27T22:38:46.494Z,6.25
2023-03-27T22:41:16.903Z,6.26
2023-03-27T22:43:49.255Z,6.26
2023-03-27T22:46:20.720Z,6.16
2023-03-27T22:48:47.986Z,6.32
2023-03-27T22:51:17.006Z,6.25
2023-03-27T22:53:43.902Z,6.39
2023-03-27T22:56:13.017Z,6.62
2023-03-27T22:58:39.859Z,6.40
2023-03-27T23:01:07.114Z,6.35
2023-03-27T23:03:37.239Z,6.46
2023-03-27T23:06:07.474Z,6.44
2023-03-27T23:08:34.388Z,6.24
2023-03-27T23:11:06.503Z,6.25
2023-03-27T23:13:34.889Z,6.23
2023-03-27T23:16:02.225Z,6.30
2023-03-27T23:18:31.840Z,6.30
2023-03-27T23:21:04.783Z,6.31
2023-03-27T23:23:36.844Z,6.46
2023-03-27T23:26:10.017Z,6.54
2023-03-27T23:28:40.914Z,6.30
2023-03-27T23:31:14.634Z,6.26
2023-03-27T23:33:44.845Z,6.40
2023-03-27T23:36:24.263Z,6.28
2023-03-27T23:38:53.906Z,6.14
2023-03-27T23:41:21.398Z,6.10
2023-03-27T23:43:48.931Z,6.24
2023-03-27T23:46:16.652Z,5.97
2023-03-27T23:48:44.531Z,5.95
2023-03-27T23:51:13.882Z,5.93
2023-03-27T23:53:46.309Z,5.92
2023-03-27T23:56:13.159Z,5.93
2023-03-27T23:58:40.175Z,5.88
